sensor_id;sensor_type;location;lat;lon;timestamp;temperature;humidity
13998;DHT22;7074;51.508;7.018;2024-03-22T03:43:53;13.40;99.90
13998;DHT22;7074;51.508;7.018;2024-03-22T03:46:21;13.40;99.90
13998;DHT22;7074;51.508;7.018;2024-03-22T03:48:47;13.30;99.90
13998;DHT22;7074;51.508;7.018;2024-03-22T03:51:14;13.40;99.90
13998;DHT22;7074;51.508;7.018;2024-03-22T03:53:40;13.30;99.90
13998;DHT22;7074;51.508;7.018;2024-03-22T03:56:08;13.40;99.90
13998;DHT22;7074;51.508;7.018;2024-03-22T03:58:34;13.40;99.90
13998;DHT22;7074;51.508;7.018;2024-03-22T04:01:09;13.30;99.90
13998;DHT22;7074;51.508;7.018;2024-03-22T04:03:35;13.40;99.90
13998;DHT22;7074;51.508;7.018;2024-03-22T04:06:04;13.30;99.90
13998;DHT22;7074;51.508;7.018;2024-03-22T04:08:31;13.30;99.90
13998;DHT22;7074;51.508;7.018;2024-03-22T04:10:59;13.30;99.90
13998;DHT22;7074;51.508;7.018;2024-03-22T04:13:30;13.30;99.90
13998;DHT22;7074;51.508;7.018;2024-03-22T04:15:59;13.30;99.90
13998;DHT22;7074;51.508;7.018;2024-03-22T04:18:29;13.30;99.90
13998;DHT22;7074;51.508;7.018;2024-03-22T04:20:58;13.30;99.90
13998;DHT22;7074;51.508;7.018;2024-03-22T04:23:25;13.30;99.90
13998;DHT22;7074;51.508;7.018;2024-03-22T04:25:54;13.30;99.90
13998;DHT22;7074;51.508;7.018;2024-03-22T04:28:20;13.30;99.90
13998;DHT22;7074;51.508;7.018;2024-03-22T04:30:55;13.30;99.90
13998;DHT22;7074;51.508;7.018;2024-03-22T04:33:22;13.30;99.90
13998;DHT22;7074;51.508;7.018;2024-03-22T04:35:50;13.30;99.90
13998;DHT22;7074;51.508;7.018;2024-03-22T04:38:17;13.30;99.90
13998;DHT22;7074;51.508;7.018;2024-03-22T04:47:49;13.30;99.90
13998;DHT22;7074;51.508;7.018;2024-03-22T04:50:20;13.30;99.90
13998;DHT22;7074;51.508;7.018;2024-03-22T04:52:49;13.30;99.90
13998;DHT22;7074;51.508;7.018;2024-03-22T04:55:15;13.30;99.90
13998;DHT22;7074;51.508;7.018;2024-03-22T04:57:44;13.30;99.90
13998;DHT22;7074;51.508;7.018;2024-03-22T05:00:11;13.30;99.90
13998;DHT22;7074;51.508;7.018;2024-03-22T05:02:38;13.30;99.90
13998;DHT22;7074;51.508;7.018;2024-03-22T05:05:06;13.30;99.90
13998;DHT22;7074;51.508;7.018;2024-03-22T05:07:34;13.30;99.90
13998;DHT22;7074;51.508;7.018;2024-03-22T05:10:03;13.30;99.90
13998;DHT22;7074;51.508;7.018;2024-03-22T05:12:31;13.20;99.90
13998;DHT22;7074;51.508;7.018;2024-03-22T05:14:58;13.20;99.90
13998;DHT22;7074;51.508;7.018;2024-03-22T05:17:28;13.20;99.90
13998;DHT22;7074;51.508;7.018;2024-03-22T05:20:00;13.30;99.90
13998;DHT22;7074;51.508;7.018;2024-03-22T05:22:27;13.30;99.90
13998;DHT22;7074;51.508;7.018;2024-03-22T05:24:54;13.30;99.90
13998;DHT22;7074;51.508;7.018;2024-03-22T05:27:22;13.30;99.90
13998;DHT22;7074;51.508;7.018;2024-03-22T05:29:49;13.20;99.90
13998;DHT22;7074;51.508;7.018;2024-03-22T05:32:17;13.30;99.90
13998;DHT22;7074;51.508;7.018;2024-03-22T05:34:45;13.30;99.90
13998;DHT22;7074;51.508;7.018;2024-03-22T05:37:11;13.30;99.90
13998;DHT22;7074;51.508;7.018;2024-03-22T05:39:39;13.30;99.90
13998;DHT22;7074;51.508;7.018;2024-03-22T05:42:06;13.30;99.90
13998;DHT22;7074;51.508;7.018;2024-03-22T05:44:35;13.30;99.90
13998;DHT22;7074;51.508;7.018;2024-03-22T05:47:01;13.30;99.90
13998;DHT22;7074;51.508;7.018;2024-03-22T05:49:29;13.30;99.90
13998;DHT22;7074;51.508;7.018;2024-03-22T05:51:57;13.30;99.90
13998;DHT22;7074;51.508;7.018;2024-03-22T05:54:25;13.30;99.90
13998;DHT22;7074;51.508;7.018;2024-03-22T05:56:52;13.30;99.90
13998;DHT22;7074;51.508;7.018;2024-03-22T05:59:19;13.30;99.90
13998;DHT22;7074;51.508;7.018;2024-03-22T06:01:47;13.30;99.90
13998;DHT22;7074;51.508;7.018;2024-03-22T06:04:14;13.30;99.90
13998;DHT22;7074;51.508;7.018;2024-03-22T06:06:41;13.40;99.90
13998;DHT22;7074;51.508;7.018;2024-03-22T06:09:08;13.40;99.90
13998;DHT22;7074;51.508;7.018;2024-03-22T06:11:35;13.40;99.90
13998;DHT22;7074;51.508;7.018;2024-03-22T06:14:05;13.40;99.90
13998;DHT22;7074;51.508;7.018;2024-03-22T06:16:33;13.40;99.90
13998;DHT22;7074;51.508;7.018;2024-03-22T06:19:03;13.40;99.90
13998;DHT22;7074;51.508;7.018;2024-03-22T06:21:35;13.50;99.90
13998;DHT22;7074;51.508;7.018;2024-03-22T06:24:04;13.50;99.90
13998;DHT22;7074;51.508;7.018;2024-03-22T06:26:30;13.50;99.90
13998;DHT22;7074;51.508;7.018;2024-03-22T06:29:05;13.50;99.90
13998;DHT22;7074;51.508;7.018;2024-03-22T06:35:48;13.50;99.90
13998;DHT22;7074;51.508;7.018;2024-03-22T06:38:17;13.50;99.90
13998;DHT22;7074;51.508;7.018;2024-03-22T06:41:14;13.60;99.90
13998;DHT22;7074;51.508;7.018;2024-03-22T06:43:41;13.60;99.90
13998;DHT22;7074;51.508;7.018;2024-03-22T06:46:19;13.60;99.90
13998;DHT22;7074;51.508;7.018;2024-03-22T06:48:54;13.70;99.90
13998;DHT22;7074;51.508;7.018;2024-03-22T06:51:24;13.70;99.90
13998;DHT22;7074;51.508;7.018;2024-03-22T06:53:52;13.70;99.90
13998;DHT22;7074;51.508;7.018;2024-03-22T06:56:18;13.80;99.90
13998;DHT22;7074;51.508;7.018;2024-03-22T06:58:46;13.80;99.90
13998;DHT22;7074;51.508;7.018;2024-03-22T07:04:36;13.90;99.90
13998;DHT22;7074;51.508;7.018;2024-03-22T07:07:06;13.90;99.90
13998;DHT22;7074;51.508;7.018;2024-03-22T07:09:33;13.90;99.90
13998;DHT22;7074;51.508;7.018;2024-03-22T07:12:00;14.00;99.90
13998;DHT22;7074;51.508;7.018;2024-03-22T07:14:30;14.00;99.90
13998;DHT22;7074;51.508;7.018;2024-03-22T07:16:57;14.10;99.90
13998;DHT22;7074;51.508;7.018;2024-03-22T07:19:24;14.20;99.90
13998;DHT22;7074;51.508;7.018;2024-03-22T07:34:49;14.40;99.90
13998;DHT22;7074;51.508;7.018;2024-03-22T07:45:21;14.50;99.90
13998;DHT22;7074;51.508;7.018;2024-03-22T07:47:49;14.60;99.90
13998;DHT22;7074;51.508;7.018;2024-03-22T07:50:17;14.50;99.90
13998;DHT22;7074;51.508;7.018;2024-03-22T07:52:45;14.60;99.90
13998;DHT22;7074;51.508;7.018;2024-03-22T07:55:11;14.50;99.90
13998;DHT22;7074;51.508;7.018;2024-03-22T07:57:39;14.60;99.90
13998;DHT22;7074;51.508;7.018;2024-03-22T08:00:06;14.70;99.90
13998;DHT22;7074;51.508;7.018;2024-03-22T08:02:42;14.70;99.90
13998;DHT22;7074;51.508;7.018;2024-03-22T08:05:09;14.80;99.90
13998;DHT22;7074;51.508;7.018;2024-03-22T08:07:38;14.90;99.90
13998;DHT22;7074;51.508;7.018;2024-03-22T08:10:05;14.90;99.90
13998;DHT22;7074;51.508;7.018;2024-03-22T08:12:33;14.90;99.90
13998;DHT22;7074;51.508;7.018;2024-03-22T08:18:16;15.00;99.90
13998;DHT22;7074;51.508;7.018;2024-03-22T08:25:16;15.00;99.90
13998;DHT22;7074;51.508;7.018;2024-03-22T08:27:48;14.90;99.90
13998;DHT22;7074;51.508;7.018;2024-03-22T08:30:37;14.90;99.90
13998;DHT22;7074;51.508;7.018;2024-03-22T08:33:09;15.00;99.90
13998;DHT22;7074;51.508;7.018;2024-03-22T08:35:35;15.00;99.90
13998;DHT22;7074;51.508;7.018;2024-03-22T08:38:06;15.10;99.90
13998;DHT22;7074;51.508;7.018;2024-03-22T08:40:41;15.20;99.90
13998;DHT22;7074;51.508;7.018;2024-03-22T08:43:09;15.20;99.90
13998;DHT22;7074;51.508;7.018;2024-03-22T08:45:48;15.30;99.90
13998;DHT22;7074;51.508;7.018;2024-03-22T09:14:28;15.50;99.90
13998;DHT22;7074;51.508;7.018;2024-03-22T09:20:07;15.90;99.90
13998;DHT22;7074;51.508;7.018;2024-03-22T09:22:44;15.90;99.90
13998;DHT22;7074;51.508;7.018;2024-03-22T09:28:41;16.20;99.90
13998;DHT22;7074;51.508;7.018;2024-03-22T09:31:24;16.20;99.90
13998;DHT22;7074;51.508;7.018;2024-03-22T09:33:51;16.40;99.90
13998;DHT22;7074;51.508;7.018;2024-03-22T09:36:30;16.50;99.90
13998;DHT22;7074;51.508;7.018;2024-03-22T09:39:25;16.60;99.90
13998;DHT22;7074;51.508;7.018;2024-03-22T09:41:56;16.50;99.90
13998;DHT22;7074;51.508;7.018;2024-03-22T09:44:23;16.40;99.90
13998;DHT22;7074;51.508;7.018;2024-03-22T09:46:56;16.40;99.90
13998;DHT22;7074;51.508;7.018;2024-03-22T09:49:23;16.40;99.90
13998;DHT22;7074;51.508;7.018;2024-03-22T09:51:52;16.40;99.90
13998;DHT22;7074;51.508;7.018;2024-03-22T09:54:18;16.30;99.90
13998;DHT22;7074;51.508;7.018;2024-03-22T09:56:50;16.40;99.90
13998;DHT22;7074;51.508;7.018;2024-03-22T09:59:18;16.40;99.90
13998;DHT22;7074;51.508;7.018;2024-03-22T10:01:46;16.40;99.90
13998;DHT22;7074;51.508;7.018;2024-03-22T10:04:15;16.50;99.90
13998;DHT22;7074;51.508;7.018;2024-03-22T10:06:47;16.50;99.90
13998;DHT22;7074;51.508;7.018;2024-03-22T10:09:16;16.50;99.90
13998;DHT22;7074;51.508;7.018;2024-03-22T10:11:44;16.40;99.90
13998;DHT22;7074;51.508;7.018;2024-03-22T10:14:21;16.30;99.90
13998;DHT22;7074;51.508;7.018;2024-03-22T10:16:51;16.50;99.90
13998;DHT22;7074;51.508;7.018;2024-03-22T10:19:21;16.50;99.90
13998;DHT22;7074;51.508;7.018;2024-03-22T10:22:11;16.40;99.90
13998;DHT22;7074;51.508;7.018;2024-03-22T10:24:39;16.50;99.90
13998;DHT22;7074;51.508;7.018;2024-03-22T10:27:15;16.50;99.90
13998;DHT22;7074;51.508;7.018;2024-03-22T10:29:42;16.60;99.90
13998;DHT22;7074;51.508;7.018;2024-03-22T10:32:14;16.60;99.90
13998;DHT22;7074;51.508;7.018;2024-03-22T10:52:31;16.70;99.90
13998;DHT22;7074;51.508;7.018;2024-03-22T10:55:06;16.90;99.90
13998;DHT22;7074;51.508;7.018;2024-03-22T10:57:40;17.00;99.90
13998;DHT22;7074;51.508;7.018;2024-03-22T11:07:23;17.00;99.90
13998;DHT22;7074;51.508;7.018;2024-03-22T11:10:08;16.90;99.90
13998;DHT22;7074;51.508;7.018;2024-03-22T11:12:39;16.90;99.90
13998;DHT22;7074;51.508;7.018;2024-03-22T11:15:09;16.80;99.90
13998;DHT22;7074;51.508;7.018;2024-03-22T11:17:39;16.80;99.90
13998;DHT22;7074;51.508;7.018;2024-03-22T11:20:09;16.80;99.90
13998;DHT22;7074;51.508;7.018;2024-03-22T11:22:38;16.70;99.90
13998;DHT22;7074;51.508;7.018;2024-03-22T11:25:12;16.70;99.90
13998;DHT22;7074;51.508;7.018;2024-03-22T11:27:39;16.60;99.90
13998;DHT22;7074;51.508;7.018;2024-03-22T11:30:09;16.60;99.90
13998;DHT22;7074;51.508;7.018;2024-03-22T11:32:41;16.50;99.90
13998;DHT22;7074;51.508;7.018;2024-03-22T11:35:12;16.60;99.90
13998;DHT22;7074;51.508;7.018;2024-03-22T11:37:40;16.60;99.90
13998;DHT22;7074;51.508;7.018;2024-03-22T11:40:12;16.50;99.90
13998;DHT22;7074;51.508;7.018;2024-03-22T11:42:41;16.50;99.90
13998;DHT22;7074;51.508;7.018;2024-03-22T11:45:10;16.40;99.90
13998;DHT22;7074;51.508;7.018;2024-03-22T11:47:39;16.30;99.90
13998;DHT22;7074;51.508;7.018;2024-03-22T11:50:06;16.20;99.90
13998;DHT22;7074;51.508;7.018;2024-03-22T11:52:35;16.20;99.90
13998;DHT22;7074;51.508;7.018;2024-03-22T11:55:05;16.20;99.90
13998;DHT22;7074;51.508;7.018;2024-03-22T11:57:32;16.10;99.90
13998;DHT22;7074;51.508;7.018;2024-03-22T12:00:05;16.10;99.90
13998;DHT22;7074;51.508;7.018;2024-03-22T12:02:44;16.10;99.90
13998;DHT22;7074;51.508;7.018;2024-03-22T12:05:10;16.10;99.90
13998;DHT22;7074;51.508;7.018;2024-03-22T12:07:39;16.00;99.90
13998;DHT22;7074;51.508;7.018;2024-03-22T12:10:08;15.90;99.90
13998;DHT22;7074;51.508;7.018;2024-03-22T12:12:35;15.80;99.90
13998;DHT22;7074;51.508;7.018;2024-03-22T12:15:03;15.70;99.90
13998;DHT22;7074;51.508;7.018;2024-03-22T12:17:30;15.70;99.90
13998;DHT22;7074;51.508;7.018;2024-03-22T12:19:56;15.70;99.90
13998;DHT22;7074;51.508;7.018;2024-03-22T12:22:24;15.60;99.90
13998;DHT22;7074;51.508;7.018;2024-03-22T12:24:51;15.70;99.90
13998;DHT22;7074;51.508;7.018;2024-03-22T12:27:20;15.60;99.90
13998;DHT22;7074;51.508;7.018;2024-03-22T12:29:48;15.50;99.90
13998;DHT22;7074;51.508;7.018;2024-03-22T12:32:16;15.40;99.90
13998;DHT22;7074;51.508;7.018;2024-03-22T12:34:42;15.40;99.90
13998;DHT22;7074;51.508;7.018;2024-03-22T12:37:10;15.40;99.90
13998;DHT22;7074;51.508;7.018;2024-03-22T12:39:38;15.30;99.90
13998;DHT22;7074;51.508;7.018;2024-03-22T12:42:06;15.40;99.90
13998;DHT22;7074;51.508;7.018;2024-03-22T12:44:36;15.30;99.90
13998;DHT22;7074;51.508;7.018;2024-03-22T12:47:36;15.20;99.90
13998;DHT22;7074;51.508;7.018;2024-03-22T12:50:04;15.20;99.90
13998;DHT22;7074;51.508;7.018;2024-03-22T12:52:33;15.20;99.90
13998;DHT22;7074;51.508;7.018;2024-03-22T12:55:01;15.10;99.90
13998;DHT22;7074;51.508;7.018;2024-03-22T12:57:28;15.00;99.90
13998;DHT22;7074;51.508;7.018;2024-03-22T12:59:57;14.90;99.90
13998;DHT22;7074;51.508;7.018;2024-03-22T13:02:24;15.00;99.90
13998;DHT22;7074;51.508;7.018;2024-03-22T13:04:59;15.00;99.90
13998;DHT22;7074;51.508;7.018;2024-03-22T13:07:28;14.90;99.90
13998;DHT22;7074;51.508;7.018;2024-03-22T13:09:54;14.90;99.90
13998;DHT22;7074;51.508;7.018;2024-03-22T13:12:23;14.90;99.90
13998;DHT22;7074;51.508;7.018;2024-03-22T13:14:54;14.80;99.90
13998;DHT22;7074;51.508;7.018;2024-03-22T13:17:24;14.70;99.90
13998;DHT22;7074;51.508;7.018;2024-03-22T13:19:52;14.70;99.90
13998;DHT22;7074;51.508;7.018;2024-03-22T13:22:19;14.60;99.90
13998;DHT22;7074;51.508;7.018;2024-03-22T13:24:46;14.60;99.90
13998;DHT22;7074;51.508;7.018;2024-03-22T13:27:14;14.60;99.90
13998;DHT22;7074;51.508;7.018;2024-03-22T13:29:40;14.50;99.90
13998;DHT22;7074;51.508;7.018;2024-03-22T13:32:08;14.50;99.90
13998;DHT22;7074;51.508;7.018;2024-03-22T13:34:38;14.50;99.90
13998;DHT22;7074;51.508;7.018;2024-03-22T13:37:05;14.50;99.90
13998;DHT22;7074;51.508;7.018;2024-03-22T13:39:32;14.50;99.90
13998;DHT22;7074;51.508;7.018;2024-03-22T13:42:00;14.40;99.90
13998;DHT22;7074;51.508;7.018;2024-03-22T13:44:27;14.50;99.90
13998;DHT22;7074;51.508;7.018;2024-03-22T13:46:55;14.50;99.90
13998;DHT22;7074;51.508;7.018;2024-03-22T13:49:27;14.40;99.90
13998;DHT22;7074;51.508;7.018;2024-03-22T13:55:07;14.40;99.90
13998;DHT22;7074;51.508;7.018;2024-03-22T13:57:35;14.30;99.90
13998;DHT22;7074;51.508;7.018;2024-03-22T14:00:04;14.30;99.90
13998;DHT22;7074;51.508;7.018;2024-03-22T14:02:39;14.30;99.90
13998;DHT22;7074;51.508;7.018;2024-03-22T14:05:11;14.20;99.90
13998;DHT22;7074;51.508;7.018;2024-03-22T14:07:47;14.20;99.90
13998;DHT22;7074;51.508;7.018;2024-03-22T14:10:17;14.20;99.90
13998;DHT22;7074;51.508;7.018;2024-03-22T14:13:00;14.20;99.90
13998;DHT22;7074;51.508;7.018;2024-03-22T14:15:26;14.20;99.90
13998;DHT22;7074;51.508;7.018;2024-03-22T14:18:02;14.30;99.90
13998;DHT22;7074;51.508;7.018;2024-03-22T14:20:29;14.20;99.90
13998;DHT22;7074;51.508;7.018;2024-03-22T14:22:59;14.20;99.90
13998;DHT22;7074;51.508;7.018;2024-03-22T14:25:31;14.20;99.90
13998;DHT22;7074;51.508;7.018;2024-03-22T14:28:02;14.20;99.90
13998;DHT22;7074;51.508;7.018;2024-03-22T14:30:29;14.20;99.90
13998;DHT22;7074;51.508;7.018;2024-03-22T14:32:59;14.20;99.90
13998;DHT22;7074;51.508;7.018;2024-03-22T14:35:34;14.10;99.90
13998;DHT22;7074;51.508;7.018;2024-03-22T14:38:05;14.20;99.90
13998;DHT22;7074;51.508;7.018;2024-03-22T14:40:37;14.20;99.90
13998;DHT22;7074;51.508;7.018;2024-03-22T14:43:07;14.20;99.90
13998;DHT22;7074;51.508;7.018;2024-03-22T14:45:34;14.10;99.90
13998;DHT22;7074;51.508;7.018;2024-03-22T14:48:12;14.10;99.90
13998;DHT22;7074;51.508;7.018;2024-03-22T14:50:46;14.00;99.90
13998;DHT22;7074;51.508;7.018;2024-03-22T14:53:27;14.00;99.90
13998;DHT22;7074;51.508;7.018;2024-03-22T14:56:19;14.00;99.90
13998;DHT22;7074;51.508;7.018;2024-03-22T14:58:54;14.00;99.90
13998;DHT22;7074;51.508;7.018;2024-03-22T15:01:32;14.00;99.90
13998;DHT22;7074;51.508;7.018;2024-03-22T15:04:07;14.00;99.90
13998;DHT22;7074;51.508;7.018;2024-03-22T15:06:34;13.90;99.90
13998;DHT22;7074;51.508;7.018;2024-03-22T15:09:13;13.80;99.90
13998;DHT22;7074;51.508;7.018;2024-03-22T15:12:12;13.80;99.90
13998;DHT22;7074;51.508;7.018;2024-03-22T15:14:46;13.80;99.90
13998;DHT22;7074;51.508;7.018;2024-03-22T15:17:45;13.70;99.90
13998;DHT22;7074;51.508;7.018;2024-03-22T15:20:36;13.70;99.90
13998;DHT22;7074;51.508;7.018;2024-03-22T15:23:17;13.70;99.90
13998;DHT22;7074;51.508;7.018;2024-03-22T15:26:04;13.60;99.90
13998;DHT22;7074;51.508;7.018;2024-03-22T15:31:39;13.60;99.90
13998;DHT22;7074;51.508;7.018;2024-03-22T15:34:06;13.60;99.90
13998;DHT22;7074;51.508;7.018;2024-03-22T15:36:32;13.60;99.90
13998;DHT22;7074;51.508;7.018;2024-03-22T15:39:03;13.60;99.90
13998;DHT22;7074;51.508;7.018;2024-03-22T15:41:38;13.70;99.90
13998;DHT22;7074;51.508;7.018;2024-03-22T15:44:09;13.70;99.90
13998;DHT22;7074;51.508;7.018;2024-03-22T15:46:35;13.60;99.90
13998;DHT22;7074;51.508;7.018;2024-03-22T15:49:05;13.60;99.90
13998;DHT22;7074;51.508;7.018;2024-03-22T15:51:35;13.60;99.90
13998;DHT22;7074;51.508;7.018;2024-03-22T15:54:06;13.60;99.90
13998;DHT22;7074;51.508;7.018;2024-03-22T15:56:41;13.60;99.90
13998;DHT22;7074;51.508;7.018;2024-03-22T15:59:18;13.60;99.90
13998;DHT22;7074;51.508;7.018;2024-03-22T16:01:58;13.60;99.90
13998;DHT22;7074;51.508;7.018;2024-03-22T16:04:31;13.50;99.90
13998;DHT22;7074;51.508;7.018;2024-03-22T16:06:59;13.40;99.90
13998;DHT22;7074;51.508;7.018;2024-03-22T16:09:28;13.40;99.90
13998;DHT22;7074;51.508;7.018;2024-03-22T16:11:56;13.40;99.90
13998;DHT22;7074;51.508;7.018;2024-03-22T16:14:24;13.40;99.90
13998;DHT22;7074;51.508;7.018;2024-03-22T16:16:51;13.40;99.90
13998;DHT22;7074;51.508;7.018;2024-03-22T16:19:19;13.30;99.90
13998;DHT22;7074;51.508;7.018;2024-03-22T16:21:46;13.40;99.90
13998;DHT22;7074;51.508;7.018;2024-03-22T16:24:15;13.40;99.90
13998;DHT22;7074;51.508;7.018;2024-03-22T16:26:42;13.50;99.90
13998;DHT22;7074;51.508;7.018;2024-03-22T16:29:09;13.40;99.90
13998;DHT22;7074;51.508;7.018;2024-03-22T16:31:38;13.30;99.90
13998;DHT22;7074;51.508;7.018;2024-03-22T16:34:06;13.30;99.90
13998;DHT22;7074;51.508;7.018;2024-03-22T16:36:34;13.30;99.90
13998;DHT22;7074;51.508;7.018;2024-03-22T16:39:05;13.30;99.90
13998;DHT22;7074;51.508;7.018;2024-03-22T16:41:34;13.40;99.90
13998;DHT22;7074;51.508;7.018;2024-03-22T16:44:04;13.30;99.90
13998;DHT22;7074;51.508;7.018;2024-03-22T16:46:30;13.40;99.90
13998;DHT22;7074;51.508;7.018;2024-03-22T16:48:58;13.40;99.90
13998;DHT22;7074;51.508;7.018;2024-03-22T16:51:27;13.40;99.90
13998;DHT22;7074;51.508;7.018;2024-03-22T16:53:59;13.40;99.90
13998;DHT22;7074;51.508;7.018;2024-03-22T16:56:27;13.40;99.90
13998;DHT22;7074;51.508;7.018;2024-03-22T16:58:55;13.40;99.90
13998;DHT22;7074;51.508;7.018;2024-03-22T17:01:27;13.40;99.90
13998;DHT22;7074;51.508;7.018;2024-03-22T17:03:54;13.30;99.90
13998;DHT22;7074;51.508;7.018;2024-03-22T17:06:21;13.20;99.90
13998;DHT22;7074;51.508;7.018;2024-03-22T17:08:54;13.20;99.90
13998;DHT22;7074;51.508;7.018;2024-03-22T17:11:21;13.20;99.90
13998;DHT22;7074;51.508;7.018;2024-03-22T17:13:53;13.30;99.90
13998;DHT22;7074;51.508;7.018;2024-03-22T17:16:25;13.30;99.90
13998;DHT22;7074;51.508;7.018;2024-03-22T17:18:55;13.30;99.90
13998;DHT22;7074;51.508;7.018;2024-03-22T17:33:17;13.30;99.90
13998;DHT22;7074;51.508;7.018;2024-03-22T17:36:30;13.30;99.90
13998;DHT22;7074;51.508;7.018;2024-03-22T17:39:00;13.30;99.90
13998;DHT22;7074;51.508;7.018;2024-03-22T17:41:26;13.30;99.90
13998;DHT22;7074;51.508;7.018;2024-03-22T17:43:54;13.30;99.90
13998;DHT22;7074;51.508;7.018;2024-03-22T17:46:21;13.20;99.90
13998;DHT22;7074;51.508;7.018;2024-03-22T17:48:50;13.20;99.90
13998;DHT22;7074;51.508;7.018;2024-03-22T17:51:16;13.20;99.90
13998;DHT22;7074;51.508;7.018;2024-03-22T17:53:44;13.10;99.90
13998;DHT22;7074;51.508;7.018;2024-03-22T17:56:11;13.00;99.90
13998;DHT22;7074;51.508;7.018;2024-03-22T17:58:38;13.00;99.90
13998;DHT22;7074;51.508;7.018;2024-03-22T18:01:05;12.90;99.90
13998;DHT22;7074;51.508;7.018;2024-03-22T18:03:32;12.90;99.90
13998;DHT22;7074;51.508;7.018;2024-03-22T18:06:00;12.90;99.90
13998;DHT22;7074;51.508;7.018;2024-03-22T18:08:30;12.80;99.90
13998;DHT22;7074;51.508;7.018;2024-03-22T18:10:57;12.40;99.90
13998;DHT22;7074;51.508;7.018;2024-03-22T18:13:25;12.40;99.90
13998;DHT22;7074;51.508;7.018;2024-03-22T18:15:51;12.20;99.90
13998;DHT22;7074;51.508;7.018;2024-03-22T18:18:19;12.20;99.90
13998;DHT22;7074;51.508;7.018;2024-03-22T18:20:45;12.30;99.90
13998;DHT22;7074;51.508;7.018;2024-03-22T18:23:16;12.30;99.90
13998;DHT22;7074;51.508;7.018;2024-03-22T18:25:43;12.20;99.90
13998;DHT22;7074;51.508;7.018;2024-03-22T18:28:10;12.30;99.90
13998;DHT22;7074;51.508;7.018;2024-03-22T18:30:36;12.30;99.90
13998;DHT22;7074;51.508;7.018;2024-03-22T18:33:04;12.20;99.90
13998;DHT22;7074;51.508;7.018;2024-03-22T18:35:31;12.20;99.90
13998;DHT22;7074;51.508;7.018;2024-03-22T18:37:58;12.20;99.90
13998;DHT22;7074;51.508;7.018;2024-03-22T18:40:26;12.20;99.90
13998;DHT22;7074;51.508;7.018;2024-03-22T18:42:55;12.20;99.90
13998;DHT22;7074;51.508;7.018;2024-03-22T18:45:22;12.20;99.90
13998;DHT22;7074;51.508;7.018;2024-03-22T18:47:49;12.30;99.90
13998;DHT22;7074;51.508;7.018;2024-03-22T18:50:16;12.20;99.90
13998;DHT22;7074;51.508;7.018;2024-03-22T18:52:43;12.10;99.90
13998;DHT22;7074;51.508;7.018;2024-03-22T18:55:10;12.10;99.90
13998;DHT22;7074;51.508;7.018;2024-03-22T18:57:38;12.20;99.90
13998;DHT22;7074;51.508;7.018;2024-03-22T19:00:07;12.20;99.90
13998;DHT22;7074;51.508;7.018;2024-03-22T19:02:34;12.10;99.90
13998;DHT22;7074;51.508;7.018;2024-03-22T19:05:02;12.10;99.90
13998;DHT22;7074;51.508;7.018;2024-03-22T19:07:31;12.20;99.90
13998;DHT22;7074;51.508;7.018;2024-03-22T19:09:58;12.20;99.90
13998;DHT22;7074;51.508;7.018;2024-03-22T19:12:24;12.10;99.90
13998;DHT22;7074;51.508;7.018;2024-03-22T19:14:53;12.20;99.90
13998;DHT22;7074;51.508;7.018;2024-03-22T19:17:19;12.10;99.90
13998;DHT22;7074;51.508;7.018;2024-03-22T19:19:47;11.90;99.90
13998;DHT22;7074;51.508;7.018;2024-03-22T19:22:13;12.00;99.90
13998;DHT22;7074;51.508;7.018;2024-03-22T19:24:41;12.10;99.90
13998;DHT22;7074;51.508;7.018;2024-03-22T19:27:08;12.30;99.90
13998;DHT22;7074;51.508;7.018;2024-03-22T19:29:35;12.20;99.90
13998;DHT22;7074;51.508;7.018;2024-03-22T19:32:04;12.30;99.90
13998;DHT22;7074;51.508;7.018;2024-03-22T19:34:32;12.30;99.90
13998;DHT22;7074;51.508;7.018;2024-03-22T19:36:58;12.20;99.90
13998;DHT22;7074;51.508;7.018;2024-03-22T19:39:26;12.00;99.90
13998;DHT22;7074;51.508;7.018;2024-03-22T19:41:52;11.90;99.90
13998;DHT22;7074;51.508;7.018;2024-03-22T19:44:20;12.00;99.90
13998;DHT22;7074;51.508;7.018;2024-03-22T19:46:47;12.10;99.90
13998;DHT22;7074;51.508;7.018;2024-03-22T19:49:18;12.10;99.90
13998;DHT22;7074;51.508;7.018;2024-03-22T19:51:44;12.10;99.90
13998;DHT22;7074;51.508;7.018;2024-03-22T19:54:12;11.80;99.90
13998;DHT22;7074;51.508;7.018;2024-03-22T19:56:38;11.90;99.90
13998;DHT22;7074;51.508;7.018;2024-03-22T19:59:06;11.90;99.90
13998;DHT22;7074;51.508;7.018;2024-03-22T20:01:32;11.90;99.90
13998;DHT22;7074;51.508;7.018;2024-03-22T20:04:02;11.90;99.90
13998;DHT22;7074;51.508;7.018;2024-03-22T20:06:30;11.90;99.90
13998;DHT22;7074;51.508;7.018;2024-03-22T20:08:57;11.90;99.90
13998;DHT22;7074;51.508;7.018;2024-03-22T20:11:35;11.80;99.90
13998;DHT22;7074;51.508;7.018;2024-03-22T20:14:07;11.60;99.90
13998;DHT22;7074;51.508;7.018;2024-03-22T20:16:36;11.70;99.90
13998;DHT22;7074;51.508;7.018;2024-03-22T20:19:09;11.70;99.90
